Anuket Opal — 3ELT2 — position and weather

sailwx.info

Track history (hours):
 
Tides and Currents Weather Stations Pressure Air Temp Water Temp Dewpoint Dewpoint Depression Visibility Wind Speed Wind Dir Waves Ship Positions

Anuket Opal

Last reported at 2017-Dec-27 08:51 UTC. Time now 2018-Feb-17 23:11 UTC.
Position N 02°59' E 000°42'.
Warning: this ship's position is 52 days out of date.

Length 122 m; draft 6.5 m.

Type: Tanker. MMSI: 356387000.

Date/timePositionNaut miles runAvg speedWind from/ knotsBaromVisibWave heightAir tempDewpointWater temp
2017-Dec-27 08:51N 02°59' E 000°42'3 8.6
2017-Dec-27 08:31N 03°00' E 000°39'4 8.5
2017-Dec-27 08:00N 03°01' E 000°35'4 8.6
2017-Dec-27 07:31N 03°03' E 000°31'4 8.7
2017-Dec-27 07:00N 03°04' E 000°27'4 8.8
2017-Dec-27 06:30N 03°06' E 000°23'4 8.7
2017-Dec-27 06:01N 03°07' E 000°18'  
2017-Dec-24 01:34N 04°04' W 001°12'1 8.6
2017-Dec-24 01:31N 04°04' W 001°11'4 8.6
2017-Dec-24 01:00N 04°05' W 001°07'4 8.8
2017-Dec-24 00:30N 04°06' W 001°03'5 8.9
2017-Dec-23 23:59N 04°07' W 000°58'8 8.6
2017-Dec-23 23:00N 04°09' W 000°50'51 8.5
2017-Dec-23 16:58N 04°32' W 000°04'4 8.3
2017-Dec-23 16:29N 04°34' W 000°00'4 8.5
2017-Dec-23 16:00N 04°35' E 000°03'4 8.3
2017-Dec-23 15:31N 04°37' E 000°07'27 8.1
2017-Dec-23 12:07N 04°48' E 000°32'1 8.0
2017-Dec-23 12:00N 04°49' E 000°33'26 6.1
2017-Dec-23 07:44N 05°02' E 000°56'1 3.2
2017-Dec-23 07:31N 05°02' E 000°56'1 2.4
2017-Dec-23 07:01N 05°03' E 000°55'1 2.3
2017-Dec-23 06:24N 05°05' E 000°55'1 2.3
2017-Dec-23 05:58N 05°06' E 000°54'1 2.3
2017-Dec-23 05:30N 05°07' E 000°54'6 2.0
2017-Dec-23 02:34N 05°12' E 000°51'0 2.3
2017-Dec-23 02:31N 05°12' E 000°51'4 1.6
2017-Dec-23 00:14N 05°14' E 000°48'1 6.6
2017-Dec-23 00:01N 05°15' E 000°49'4 7.4
2017-Dec-22 23:26N 05°17' E 000°53'3 7.5
2017-Dec-22 23:01N 05°19' E 000°56'4 8.0
2017-Dec-22 22:31N 05°21' E 000°59'4 8.2
2017-Dec-22 22:01N 05°23' E 001°03'4 8.3
2017-Dec-22 21:30N 05°25' E 001°06'4 8.3
2017-Dec-22 21:01N 05°27' E 001°10'4 8.7
2017-Dec-22 20:31N 05°30' E 001°13'510.0
2017-Dec-22 20:00N 05°36' E 001°13'510.1
2017-Dec-22 19:31N 05°40' E 001°13'510.0
2017-Dec-22 19:01N 05°45' E 001°13'5 9.1
2017-Dec-22 18:31N 05°50' E 001°13'4 8.4
2017-Dec-22 18:01N 05°54' E 001°13'4 8.1
2017-Dec-22 17:31N 05°58' E 001°12'2 4.9
2017-Dec-22 17:01N 06°01' E 001°13'0 0.1
2017-Dec-22 16:25N 06°01' E 001°13'  
2017-Dec-17 22:36N 06°02' E 001°15'0 1.4
2017-Dec-17 22:18N 06°02' E 001°14'29 8.9
2017-Dec-17 19:00N 05°34' E 001°04'1911.3
2017-Dec-17 17:18N 05°26' E 000°47'311.5
2017-Dec-17 17:00N 05°24' E 000°44'611.5
2017-Dec-17 16:30N 05°22' E 000°38'811.6
2017-Dec-17 15:50N 05°19' E 000°31'411.6
2017-Dec-17 15:30N 05°17' E 000°28'611.6
2017-Dec-17 14:59N 05°15' E 000°22'511.4
2017-Dec-17 14:30N 05°13' E 000°17'611.3
2017-Dec-17 14:00N 05°10' E 000°12'611.3
2017-Dec-17 13:29N 05°08' E 000°06'1711.3
2017-Dec-17 12:00N 05°01' W 000°09'  
Track history (hours):
 
Tides and Currents Weather Stations Pressure Air Temp Water Temp Dewpoint Dewpoint Depression Visibility Wind Speed Wind Dir Waves Ship Positions

Anuket Opal

Last reported at 2017-Dec-27 08:51 UTC. Time now 2018-Feb-17 23:11 UTC.
Position N 02°59' E 000°42'.
Warning: this ship's position is 52 days out of date.

Length 122 m; draft 6.5 m.

Type: Tanker. MMSI: 356387000.

Date/timePositionNaut miles runAvg speedWind from/ knotsBaromVisibWave heightAir tempDewpointWater temp
2017-Dec-27 08:51N 02°59' E 000°42'3 8.6
2017-Dec-27 08:31N 03°00' E 000°39'4 8.5
2017-Dec-27 08:00N 03°01' E 000°35'4 8.6
2017-Dec-27 07:31N 03°03' E 000°31'4 8.7
2017-Dec-27 07:00N 03°04' E 000°27'4 8.8
2017-Dec-27 06:30N 03°06' E 000°23'4 8.7
2017-Dec-27 06:01N 03°07' E 000°18'  
2017-Dec-24 01:34N 04°04' W 001°12'1 8.6
2017-Dec-24 01:31N 04°04' W 001°11'4 8.6
2017-Dec-24 01:00N 04°05' W 001°07'4 8.8
2017-Dec-24 00:30N 04°06' W 001°03'5 8.9
2017-Dec-23 23:59N 04°07' W 000°58'8 8.6
2017-Dec-23 23:00N 04°09' W 000°50'51 8.5
2017-Dec-23 16:58N 04°32' W 000°04'4 8.3
2017-Dec-23 16:29N 04°34' W 000°00'4 8.5
2017-Dec-23 16:00N 04°35' E 000°03'4 8.3
2017-Dec-23 15:31N 04°37' E 000°07'27 8.1
2017-Dec-23 12:07N 04°48' E 000°32'1 8.0
2017-Dec-23 12:00N 04°49' E 000°33'26 6.1
2017-Dec-23 07:44N 05°02' E 000°56'1 3.2
2017-Dec-23 07:31N 05°02' E 000°56'1 2.4
2017-Dec-23 07:01N 05°03' E 000°55'1 2.3
2017-Dec-23 06:24N 05°05' E 000°55'1 2.3
2017-Dec-23 05:58N 05°06' E 000°54'1 2.3
2017-Dec-23 05:30N 05°07' E 000°54'6 2.0
2017-Dec-23 02:34N 05°12' E 000°51'0 2.3
2017-Dec-23 02:31N 05°12' E 000°51'4 1.6
2017-Dec-23 00:14N 05°14' E 000°48'1 6.6
2017-Dec-23 00:01N 05°15' E 000°49'4 7.4
2017-Dec-22 23:26N 05°17' E 000°53'3 7.5
2017-Dec-22 23:01N 05°19' E 000°56'4 8.0
2017-Dec-22 22:31N 05°21' E 000°59'4 8.2
2017-Dec-22 22:01N 05°23' E 001°03'4 8.3
2017-Dec-22 21:30N 05°25' E 001°06'4 8.3
2017-Dec-22 21:01N 05°27' E 001°10'4 8.7
2017-Dec-22 20:31N 05°30' E 001°13'510.0
2017-Dec-22 20:00N 05°36' E 001°13'510.1
2017-Dec-22 19:31N 05°40' E 001°13'510.0
2017-Dec-22 19:01N 05°45' E 001°13'5 9.1
2017-Dec-22 18:31N 05°50' E 001°13'4 8.4
2017-Dec-22 18:01N 05°54' E 001°13'4 8.1
2017-Dec-22 17:31N 05°58' E 001°12'2 4.9
2017-Dec-22 17:01N 06°01' E 001°13'0 0.1
2017-Dec-22 16:25N 06°01' E 001°13'  
2017-Dec-17 22:36N 06°02' E 001°15'0 1.4
2017-Dec-17 22:18N 06°02' E 001°14'29 8.9
2017-Dec-17 19:00N 05°34' E 001°04'1911.3
2017-Dec-17 17:18N 05°26' E 000°47'311.5
2017-Dec-17 17:00N 05°24' E 000°44'611.5
2017-Dec-17 16:30N 05°22' E 000°38'811.6
2017-Dec-17 15:50N 05°19' E 000°31'411.6
2017-Dec-17 15:30N 05°17' E 000°28'611.6
2017-Dec-17 14:59N 05°15' E 000°22'511.4
2017-Dec-17 14:30N 05°13' E 000°17'611.3
2017-Dec-17 14:00N 05°10' E 000°12'611.3
2017-Dec-17 13:29N 05°08' E 000°06'1711.3
2017-Dec-17 12:00N 05°01' W 000°09'  

Dump ship's entire track history